Time;durP1;ratioP1;P1;durP2;ratioP2;P2;SDS_P1;SDS_P2;PMS_P1;PMS_P2;Temp;Humidity;BMP_temperature;BMP_pressure;BME280_temperature;BME280_humidity;BME280_pressure;Samples;Min_cycle;Max_cycle;Signal;HPM_P1;HPM_P2
2023/09/23 00:00:12;;;;;;;0.77;0.40;;;20.60;99.90;;;;;;5031508;28;20029;-40
2023/09/23 00:02:43;;;;;;;0.93;0.45;;;20.60;99.90;;;;;;5031399;28;20067;-37
2023/09/23 00:05:11;;;;;;;1.10;0.50;;;20.50;99.90;;;;;;5031299;28;20029;-40
2023/09/23 00:07:39;;;;;;;1.63;0.40;;;20.60;99.90;;;;;;5031344;28;20032;-40
2023/09/23 00:10:08;;;;;;;0.98;0.38;;;20.60;99.90;;;;;;5031243;28;20383;-38
2023/09/23 00:12:35;;;;;;;1.15;0.40;;;20.60;99.90;;;;;;5031158;28;20033;-40
2023/09/23 00:15:03;;;;;;;1.85;0.60;;;20.60;99.90;;;;;;5031090;28;20029;-41
2023/09/23 00:17:29;;;;;;;0.63;0.32;;;20.60;99.90;;;;;;5031375;28;20108;-40
2023/09/23 00:19:54;;;;;;;0.55;0.43;;;20.50;99.90;;;;;;5031325;28;20114;-37
2023/09/23 00:22:21;;;;;;;0.20;0.20;;;20.60;99.90;;;;;;5031099;28;20052;-41
2023/09/23 00:24:47;;;;;;;0.60;0.30;;;20.60;99.90;;;;;;5031036;28;20037;-39
2023/09/23 00:27:13;;;;;;;1.27;0.40;;;20.50;99.90;;;;;;5031107;28;20030;-40
2023/09/23 00:29:39;;;;;;;0.63;0.32;;;20.50;99.90;;;;;;5031623;28;20036;-45
2023/09/23 00:32:04;;;;;;;0.50;0.40;;;20.50;99.90;;;;;;5031129;28;20032;-39
2023/09/23 00:34:30;;;;;;;0.57;0.30;;;20.50;99.90;;;;;;5031000;28;20423;-40
2023/09/23 00:36:56;;;;;;;1.65;0.50;;;20.50;99.90;;;;;;5031046;28;20455;-41
2023/09/23 00:39:21;;;;;;;1.05;0.32;;;20.50;99.90;;;;;;5031012;28;20026;-43
2023/09/23 00:41:47;;;;;;;0.85;0.30;;;20.50;99.90;;;;;;5030893;28;20039;-41
2023/09/23 00:44:13;;;;;;;0.65;0.30;;;20.50;99.90;;;;;;5030917;28;20403;-40
2023/09/23 00:46:41;;;;;;;0.88;0.50;;;20.50;99.90;;;;;;5030893;28;20025;-43
2023/09/23 00:49:07;;;;;;;1.20;0.30;;;20.40;99.90;;;;;;5031026;28;20029;-40
2023/09/23 00:51:33;;;;;;;0.80;0.40;;;20.40;99.90;;;;;;5030988;28;20033;-38
2023/09/23 00:54:01;;;;;;;0.90;0.43;;;20.40;99.90;;;;;;5030754;28;20052;-39
2023/09/23 00:56:29;;;;;;;2.05;0.40;;;20.40;99.90;;;;;;5030951;28;20483;-43
2023/09/23 00:58:54;;;;;;;2.85;0.50;;;20.40;99.90;;;;;;5030777;28;20034;-41
2023/09/23 01:01:21;;;;;;;0.82;0.40;;;20.40;99.90;;;;;;5030825;28;20033;-37
2023/09/23 01:03:47;;;;;;;1.90;0.40;;;20.40;99.90;;;;;;5030869;28;20020;-41
2023/09/23 01:06:21;;;;;;;1.73;0.40;;;20.40;99.90;;;;;;5030621;28;20024;-41
2023/09/23 01:08:50;;;;;;;0.88;0.40;;;20.40;99.90;;;;;;5030918;28;20028;-43
2023/09/23 01:11:17;;;;;;;0.50;0.40;;;20.40;99.90;;;;;;5030707;28;20021;-43
2023/09/23 01:13:45;;;;;;;1.10;0.50;;;20.40;99.90;;;;;;5030643;28;20026;-39
2023/09/23 01:16:14;;;;;;;0.55;0.28;;;20.40;99.90;;;;;;5030577;28;20025;-41
2023/09/23 01:18:44;;;;;;;0.77;0.30;;;20.40;99.90;;;;;;5030768;28;20025;-40
2023/09/23 01:21:10;;;;;;;2.35;0.52;;;20.40;99.90;;;;;;5030656;28;20390;-42
2023/09/23 01:23:37;;;;;;;1.95;0.20;;;20.30;99.90;;;;;;5030701;28;20104;-40
2023/09/23 01:26:04;;;;;;;0.80;0.40;;;20.30;99.90;;;;;;5033598;28;20025;-40
2023/09/23 01:28:32;;;;;;;0.35;0.28;;;20.30;99.90;;;;;;5034222;28;20036;-42
2023/09/23 01:30:59;;;;;;;0.75;0.47;;;20.30;99.90;;;;;;5034098;28;20506;-40
2023/09/23 01:33:26;;;;;;;0.68;0.30;;;20.30;99.90;;;;;;5034056;28;20100;-39
2023/09/23 01:35:55;;;;;;;1.00;0.40;;;20.30;99.90;;;;;;5033833;28;20048;-41
2023/09/23 01:38:21;;;;;;;0.30;0.20;;;20.30;99.90;;;;;;5034113;28;20104;-40
2023/09/23 01:40:47;;;;;;;0.75;0.40;;;20.30;99.90;;;;;;5033847;28;20440;-41
2023/09/23 01:43:13;;;;;;;0.47;0.28;;;20.30;99.90;;;;;;5033985;28;20026;-40
2023/09/23 01:45:39;;;;;;;1.20;0.35;;;20.30;99.90;;;;;;5034166;28;20029;-41
2023/09/23 01:48:05;;;;;;;2.45;0.50;;;20.30;99.90;;;;;;5033746;28;20498;-40
2023/09/23 01:50:31;;;;;;;2.38;0.45;;;20.30;99.90;;;;;;5033750;28;20491;-41
2023/09/23 01:52:59;;;;;;;0.65;0.40;;;20.30;99.90;;;;;;5033692;28;20029;-41
2023/09/23 01:55:25;;;;;;;0.40;0.30;;;20.20;99.90;;;;;;5033490;28;20021;-39
2023/09/23 01:57:50;;;;;;;0.50;0.30;;;20.20;99.90;;;;;;5033651;28;20017;-42
2023/09/23 02:00:28;;;;;;;1.42;0.38;;;20.20;99.90;;;;;;5034074;28;20045;-42
2023/09/23 02:02:55;;;;;;;0.60;0.30;;;20.20;99.90;;;;;;5033585;28;20538;-43
2023/09/23 02:05:23;;;;;;;1.35;0.30;;;20.20;99.90;;;;;;5033425;28;20502;-40
2023/09/23 02:07:50;;;;;;;2.65;0.43;;;20.20;99.90;;;;;;5033771;28;20112;-40
2023/09/23 02:10:17;;;;;;;1.85;0.40;;;20.20;99.90;;;;;;5033478;28;20147;-42
2023/09/23 02:12:43;;;;;;;0.98;0.40;;;20.20;99.90;;;;;;5033409;28;20031;-43
2023/09/23 02:15:10;;;;;;;1.08;0.20;;;20.20;99.90;;;;;;5015239;28;20064;-40
2023/09/23 02:17:36;;;;;;;0.50;0.30;;;20.20;99.90;;;;;;5033244;28;20382;-38
2023/09/23 02:20:16;;;;;;;0.63;0.30;;;20.20;99.90;;;;;;5033308;28;20025;-43
2023/09/23 02:22:41;;;;;;;0.50;0.30;;;20.20;99.90;;;;;;5033171;28;20590;-42
2023/09/23 02:25:07;;;;;;;0.50;0.40;;;20.20;99.90;;;;;;5032989;28;20048;-39
2023/09/23 02:27:34;;;;;;;0.40;0.30;;;20.20;99.90;;;;;;5032991;28;20522;-40
2023/09/23 02:30:02;;;;;;;1.98;0.45;;;20.20;99.90;;;;;;5033093;28;20025;-37
2023/09/23 02:32:28;;;;;;;0.88;0.30;;;20.20;99.90;;;;;;5032938;28;20121;-41
2023/09/23 02:34:54;;;;;;;1.33;0.35;;;20.10;99.90;;;;;;5032809;28;20530;-41
2023/09/23 02:37:19;;;;;;;0.57;0.30;;;20.10;99.90;;;;;;5031833;28;20108;-39
2023/09/23 02:40:06;;;;;;;2.13;0.40;;;20.20;99.90;;;;;;5032899;28;20525;-40
2023/09/23 02:42:32;;;;;;;0.45;0.30;;;20.10;99.90;;;;;;5032665;28;20037;-41
2023/09/23 02:44:57;;;;;;;2.25;0.25;;;20.10;99.90;;;;;;5032704;28;20386;-42
2023/09/23 02:47:23;;;;;;;1.73;0.40;;;20.10;99.90;;;;;;5032743;28;20025;-45
2023/09/23 02:49:49;;;;;;;0.43;0.25;;;20.10;99.90;;;;;;5032727;28;20029;-40
2023/09/23 02:52:14;;;;;;;0.90;0.35;;;20.10;99.90;;;;;;5032997;28;20041;-40
2023/09/23 02:54:40;;;;;;;1.55;0.32;;;20.10;99.90;;;;;;5032245;28;20029;-41
2023/09/23 02:57:08;;;;;;;0.50;0.30;;;20.10;99.90;;;;;;5032433;28;20018;-42
2023/09/23 02:59:41;;;;;;;0.75;0.22;;;20.10;99.90;;;;;;5032633;28;20029;-41
2023/09/23 03:02:07;;;;;;;1.65;0.40;;;20.10;99.90;;;;;;5032461;28;20385;-42
2023/09/23 03:04:34;;;;;;;0.60;0.30;;;20.10;99.90;;;;;;5032264;28;20036;-39
2023/09/23 03:07:04;;;;;;;3.30;0.65;;;20.10;99.90;;;;;;5032249;28;20033;-40
2023/09/23 03:09:32;;;;;;;0.68;0.30;;;20.10;99.90;;;;;;5032184;28;20033;-43
2023/09/23 03:12:00;;;;;;;0.73;0.30;;;20.10;99.90;;;;;;5032305;28;20104;-42
2023/09/23 03:14:40;;;;;;;1.52;0.20;;;20.10;99.90;;;;;;5032121;28;20396;-43
2023/09/23 03:17:07;;;;;;;2.50;0.40;;;20.10;99.90;;;;;;5032185;28;20176;-40
2023/09/23 03:19:33;;;;;;;0.60;0.30;;;20.00;99.90;;;;;;5032204;28;20439;-41
2023/09/23 03:22:00;;;;;;;1.17;0.47;;;20.00;99.90;;;;;;5032021;28;20459;-40
2023/09/23 03:24:28;;;;;;;0.55;0.30;;;20.00;99.90;;;;;;5031902;28;20036;-41
2023/09/23 03:26:56;;;;;;;0.82;0.30;;;20.10;99.90;;;;;;5032188;28;20105;-37
2023/09/23 03:29:22;;;;;;;3.03;0.47;;;20.10;99.90;;;;;;5032007;28;20057;-41
2023/09/23 03:31:49;;;;;;;2.95;0.40;;;20.00;99.90;;;;;;5031811;28;20018;-38
2023/09/23 03:34:16;;;;;;;1.35;0.30;;;20.00;99.90;;;;;;5014261;28;20116;-40
2023/09/23 03:36:43;;;;;;;0.52;0.30;;;20.00;99.90;;;;;;5031928;28;20021;-39
2023/09/23 03:39:09;;;;;;;0.80;0.47;;;20.00;99.90;;;;;;5031749;28;20075;-41
2023/09/23 03:41:38;;;;;;;2.47;0.30;;;20.00;99.90;;;;;;5014375;28;20556;-40
2023/09/23 03:44:09;;;;;;;1.40;0.40;;;20.00;99.90;;;;;;5031632;28;20059;-40
2023/09/23 03:46:36;;;;;;;2.25;0.40;;;20.00;99.90;;;;;;5031500;28;20052;-40
2023/09/23 03:49:02;;;;;;;3.63;0.35;;;19.90;99.90;;;;;;5031946;28;20013;-43
2023/09/23 03:51:27;;;;;;;2.10;0.38;;;20.00;99.90;;;;;;5031554;28;20545;-40
2023/09/23 03:53:53;;;;;;;0.93;0.22;;;19.90;99.90;;;;;;5031557;28;20042;-40
2023/09/23 03:56:24;;;;;;;5.97;0.30;;;20.00;99.90;;;;;;5031391;28;20487;-39
2023/09/23 03:58:53;;;;;;;1.55;0.50;;;19.90;99.90;;;;;;5031542;28;20112;-38
2023/09/23 04:01:20;;;;;;;1.48;0.40;;;19.90;99.90;;;;;;5031317;28;20017;-42
2023/09/23 04:03:45;;;;;;;1.42;0.52;;;19.90;99.90;;;;;;5031473;28;20026;-41
2023/09/23 04:06:11;;;;;;;0.50;0.40;;;19.90;99.90;;;;;;5031247;28;20028;-40
2023/09/23 04:08:37;;;;;;;2.15;0.40;;;19.90;99.90;;;;;;5031501;28;20032;-40
2023/09/23 04:11:07;;;;;;;2.20;0.40;;;19.90;99.90;;;;;;5031283;28;20045;-43
2023/09/23 04:13:33;;;;;;;1.38;0.35;;;19.90;99.90;;;;;;5031346;28;20458;-39
2023/09/23 04:16:03;;;;;;;0.88;0.30;;;19.90;99.90;;;;;;5030979;28;20076;-41
2023/09/23 04:18:29;;;;;;;0.25;0.13;;;19.90;99.90;;;;;;5031351;28;20022;-40
2023/09/23 04:20:55;;;;;;;0.95;0.30;;;19.90;99.90;;;;;;5031217;28;20092;-43
2023/09/23 04:23:21;;;;;;;0.77;0.30;;;19.90;99.90;;;;;;5031744;28;20474;-39
2023/09/23 04:25:50;;;;;;;1.23;0.20;;;19.90;99.90;;;;;;5031176;28;20028;-41
2023/09/23 04:28:18;;;;;;;2.88;0.20;;;19.90;99.90;;;;;;5031255;28;20041;-39
2023/09/23 04:30:45;;;;;;;0.30;0.20;;;19.90;99.90;;;;;;5031046;28;20061;-39
2023/09/23 04:33:13;;;;;;;0.52;0.20;;;19.90;99.90;;;;;;5031155;28;20030;-40
2023/09/23 04:35:39;;;;;;;0.60;0.20;;;19.90;99.90;;;;;;5030881;28;20033;-40
2023/09/23 04:38:05;;;;;;;0.45;0.32;;;19.90;99.90;;;;;;5031143;28;20021;-37
2023/09/23 04:40:30;;;;;;;0.50;0.30;;;19.90;99.90;;;;;;5031132;28;20021;-41
2023/09/23 04:42:56;;;;;;;0.93;0.30;;;19.80;99.90;;;;;;5030829;28;20042;-41
2023/09/23 04:45:22;;;;;;;0.35;0.20;;;19.90;99.90;;;;;;5030823;28;20036;-38
2023/09/23 04:47:50;;;;;;;1.08;0.40;;;19.80;99.90;;;;;;5031042;28;20037;-42
2023/09/23 04:50:23;;;;;;;1.42;0.30;;;19.80;99.90;;;;;;5031010;28;20025;-40
2023/09/23 04:52:50;;;;;;;2.53;0.43;;;19.80;99.90;;;;;;5030919;28;20022;-41
2023/09/23 04:55:16;;;;;;;0.50;0.30;;;19.80;99.90;;;;;;5030756;28;20021;-40
2023/09/23 04:57:42;;;;;;;0.60;0.20;;;19.80;99.90;;;;;;5030788;28;20034;-40
2023/09/23 05:00:11;;;;;;;0.93;0.25;;;19.80;99.90;;;;;;5033088;28;20601;-39
2023/09/23 05:02:37;;;;;;;0.77;0.30;;;19.80;99.90;;;;;;5034773;28;20026;-40
2023/09/23 05:05:03;;;;;;;0.30;0.20;;;19.80;99.90;;;;;;5034573;28;20494;-40
2023/09/23 05:07:28;;;;;;;0.43;0.30;;;19.80;99.90;;;;;;5034501;28;20034;-39
2023/09/23 05:09:57;;;;;;;1.58;0.35;;;19.80;99.90;;;;;;5034571;28;20071;-40
2023/09/23 05:12:24;;;;;;;0.43;0.28;;;19.80;99.90;;;;;;5034366;28;20112;-43
2023/09/23 05:14:49;;;;;;;1.00;0.47;;;19.80;99.90;;;;;;5034272;28;20043;-41
2023/09/23 05:17:16;;;;;;;0.60;0.40;;;19.80;99.90;;;;;;5034347;28;20475;-41
2023/09/23 05:19:42;;;;;;;0.80;0.30;;;19.80;99.90;;;;;;5034369;28;20434;-41
2023/09/23 05:22:10;;;;;;;2.60;0.32;;;19.80;99.90;;;;;;5034218;28;20079;-44
2023/09/23 05:24:36;;;;;;;0.60;0.20;;;19.80;99.90;;;;;;5034128;28;20028;-40
2023/09/23 05:27:03;;;;;;;0.70;0.35;;;19.80;99.90;;;;;;5034352;28;20025;-40
2023/09/23 05:29:29;;;;;;;1.55;0.40;;;19.70;99.90;;;;;;5034227;28;20072;-40
2023/09/23 05:31:54;;;;;;;0.60;0.40;;;19.80;99.90;;;;;;5034103;28;20064;-41
2023/09/23 05:34:20;;;;;;;1.55;0.40;;;19.70;99.90;;;;;;5034088;28;20034;-40
2023/09/23 05:36:46;;;;;;;0.88;0.47;;;19.80;99.90;;;;;;5033893;28;20021;-39
2023/09/23 05:39:14;;;;;;;2.22;0.30;;;19.80;99.90;;;;;;5033957;28;20104;-41
2023/09/23 05:41:41;;;;;;;0.65;0.40;;;19.80;99.90;;;;;;5033905;28;20032;-43
2023/09/23 05:44:07;;;;;;;0.85;0.35;;;19.80;99.90;;;;;;5033964;28;20052;-41
2023/09/23 05:46:35;;;;;;;1.35;0.30;;;19.70;99.90;;;;;;5033892;28;20026;-42
2023/09/23 05:49:02;;;;;;;1.13;0.40;;;19.70;99.90;;;;;;5033864;28;20040;-45
2023/09/23 05:51:27;;;;;;;0.45;0.30;;;19.80;99.90;;;;;;5033713;28;20071;-42
2023/09/23 05:53:53;;;;;;;0.55;0.30;;;19.70;99.90;;;;;;5033614;28;20029;-40
2023/09/23 05:56:19;;;;;;;1.00;0.32;;;19.70;99.90;;;;;;5033537;28;20049;-46
2023/09/23 05:58:46;;;;;;;0.30;0.30;;;19.70;99.90;;;;;;5033729;28;20124;-41
2023/09/23 06:01:13;;;;;;;0.50;0.40;;;19.70;99.90;;;;;;5033627;28;20025;-41
2023/09/23 06:03:41;;;;;;;0.50;0.30;;;19.70;99.90;;;;;;5033723;28;20037;-40
2023/09/23 06:06:06;;;;;;;1.20;0.40;;;19.70;99.90;;;;;;5033368;28;20017;-41
2023/09/23 06:08:32;;;;;;;1.00;0.40;;;19.70;99.90;;;;;;5033544;28;20032;-41
2023/09/23 06:11:05;;;;;;;1.23;0.40;;;19.70;99.90;;;;;;5033180;28;20445;-38
2023/09/23 06:13:32;;;;;;;1.25;0.35;;;19.70;99.90;;;;;;5033458;28;20473;-40
2023/09/23 06:16:05;;;;;;;1.20;0.45;;;19.70;99.90;;;;;;5033102;28;20433;-40
2023/09/23 06:18:31;;;;;;;1.00;0.52;;;19.70;99.90;;;;;;5033376;28;20028;-41
2023/09/23 06:20:59;;;;;;;0.55;0.40;;;19.70;99.90;;;;;;5033563;28;20104;-42
2023/09/23 06:23:25;;;;;;;2.13;0.40;;;19.70;99.90;;;;;;5033209;28;20013;-43
2023/09/23 06:25:55;;;;;;;0.63;0.30;;;19.70;99.90;;;;;;5033015;28;20092;-41
2023/09/23 06:28:22;;;;;;;0.73;0.35;;;19.70;99.90;;;;;;5016141;28;20570;-40
2023/09/23 06:30:48;;;;;;;0.77;0.40;;;19.70;99.90;;;;;;5013164;28;20025;-41
2023/09/23 06:33:13;;;;;;;0.80;0.60;;;19.70;99.90;;;;;;5013270;28;20056;-40
2023/09/23 06:35:39;;;;;;;0.57;0.43;;;19.70;99.90;;;;;;5012804;28;20108;-43
2023/09/23 06:38:04;;;;;;;2.30;0.60;;;19.70;99.90;;;;;;5013475;28;20131;-41
2023/09/23 06:40:30;;;;;;;0.75;0.40;;;19.80;99.90;;;;;;5013324;28;20030;-40
2023/09/23 06:42:56;;;;;;;1.13;0.52;;;19.70;99.90;;;;;;5012976;28;20065;-40
2023/09/23 06:45:21;;;;;;;0.80;0.50;;;19.70;99.90;;;;;;5012944;28;20026;-40
2023/09/23 06:47:47;;;;;;;0.80;0.40;;;19.80;99.90;;;;;;5013093;28;20081;-39
2023/09/23 06:50:13;;;;;;;0.60;0.40;;;19.70;99.90;;;;;;5012807;28;20071;-43
2023/09/23 06:52:38;;;;;;;1.63;0.40;;;19.80;99.90;;;;;;5012818;28;20026;-41
2023/09/23 06:55:04;;;;;;;0.95;0.40;;;19.70;99.90;;;;;;5012653;28;20391;-40
2023/09/23 06:57:30;;;;;;;0.47;0.38;;;19.80;99.90;;;;;;5012700;28;20033;-41
2023/09/23 06:59:55;;;;;;;0.60;0.50;;;19.70;99.90;;;;;;5012815;28;20025;-40
2023/09/23 07:02:21;;;;;;;0.90;0.50;;;19.70;99.90;;;;;;4986269;28;20026;-38
2023/09/23 07:04:47;;;;;;;0.77;0.60;;;19.80;99.90;;;;;;5012354;28;20021;-40
2023/09/23 07:07:13;;;;;;;1.50;0.40;;;19.80;99.90;;;;;;5012550;28;20061;-40
2023/09/23 07:09:38;;;;;;;0.90;0.60;;;19.80;99.90;;;;;;5012569;28;20131;-40
2023/09/23 07:12:05;;;;;;;0.82;0.60;;;19.80;99.90;;;;;;5012486;28;20041;-41
2023/09/23 07:14:31;;;;;;;0.90;0.63;;;19.80;99.90;;;;;;4994654;28;20026;-40
2023/09/23 07:16:56;;;;;;;1.23;0.55;;;19.80;99.90;;;;;;5012374;28;20426;-39
2023/09/23 07:19:22;;;;;;;1.35;0.60;;;19.80;99.90;;;;;;5012348;28;20022;-40
2023/09/23 07:21:48;;;;;;;0.60;0.50;;;19.80;99.90;;;;;;5011904;28;20499;-42
2023/09/23 07:24:13;;;;;;;0.77;0.47;;;19.80;99.90;;;;;;5012118;28;20041;-39
2023/09/23 07:26:39;;;;;;;1.45;0.60;;;19.80;99.90;;;;;;4994610;28;20026;-39
2023/09/23 07:29:04;;;;;;;0.50;0.40;;;19.90;99.90;;;;;;5012289;28;20117;-39
2023/09/23 07:31:30;;;;;;;0.70;0.57;;;19.80;99.90;;;;;;5012185;28;20038;-39
2023/09/23 07:33:56;;;;;;;1.20;0.57;;;19.90;99.90;;;;;;5012016;28;20423;-37
2023/09/23 07:36:21;;;;;;;2.30;0.68;;;19.90;99.90;;;;;;5011867;28;20037;-38
2023/09/23 07:38:47;;;;;;;0.70;0.40;;;19.90;99.90;;;;;;5012502;28;20105;-39
2023/09/23 07:41:12;;;;;;;1.70;0.70;;;19.90;99.90;;;;;;5011897;28;20034;-37
2023/09/23 07:43:39;;;;;;;2.08;0.52;;;19.90;99.90;;;;;;5012088;28;20551;-39
2023/09/23 07:46:05;;;;;;;1.35;0.60;;;19.90;99.90;;;;;;5011831;28;20026;-37
2023/09/23 07:48:31;;;;;;;1.40;0.70;;;19.90;99.90;;;;;;5011893;28;20462;-37
2023/09/23 07:50:57;;;;;;;0.77;0.43;;;19.90;99.90;;;;;;4994203;28;20091;-38
2023/09/23 07:53:23;;;;;;;0.82;0.57;;;19.90;99.90;;;;;;5011951;28;20017;-41
2023/09/23 07:55:49;;;;;;;1.23;0.60;;;20.00;99.90;;;;;;5011655;28;20037;-43
2023/09/23 07:58:15;;;;;;;3.53;1.40;;;20.00;99.90;;;;;;5011791;28;20372;-40
2023/09/23 08:00:40;;;;;;;3.05;1.10;;;19.60;99.90;;;;;;5011729;28;20022;-38
2023/09/23 08:03:08;;;;;;;2.05;1.13;;;19.10;99.90;;;;;;5011595;28;20017;-38
2023/09/23 08:05:33;;;;;;;4.45;1.13;;;19.00;99.90;;;;;;5011530;28;20026;-39
2023/09/23 08:07:59;;;;;;;2.17;1.17;;;19.10;99.90;;;;;;5011750;28;20026;-40
2023/09/23 08:10:24;;;;;;;2.97;1.20;;;19.20;99.90;;;;;;5011713;28;20483;-39
2023/09/23 08:12:50;;;;;;;3.53;1.02;;;19.30;99.90;;;;;;5011565;28;20032;-40
2023/09/23 08:15:16;;;;;;;3.45;1.20;;;19.40;99.90;;;;;;5011460;28;20467;-38
2023/09/23 08:17:42;;;;;;;2.83;1.30;;;19.50;99.90;;;;;;5011350;28;20091;-39
2023/09/23 08:20:20;;;;;;;2.05;1.05;;;19.60;99.90;;;;;;5011596;28;20100;-38
2023/09/23 08:22:46;;;;;;;2.65;1.08;;;19.70;99.90;;;;;;5011492;28;20483;-36
2023/09/23 08:25:15;;;;;;;2.42;1.27;;;19.70;99.90;;;;;;5011394;28;20037;-39
2023/09/23 08:27:41;;;;;;;2.33;1.08;;;19.80;99.90;;;;;;5011461;28;20084;-39
2023/09/23 08:30:10;;;;;;;3.03;1.10;;;19.80;99.90;;;;;;5011483;28;20113;-39
2023/09/23 08:32:39;;;;;;;1.65;0.82;;;19.90;99.90;;;;;;5011466;28;20088;-38
2023/09/23 08:35:07;;;;;;;3.78;1.10;;;19.90;99.90;;;;;;5014999;28;20026;-38
2023/09/23 08:37:33;;;;;;;2.50;1.00;;;20.00;99.90;;;;;;5015348;28;20430;-38
2023/09/23 08:39:59;;;;;;;1.85;0.98;;;20.00;99.90;;;;;;5015443;28;20505;-37
2023/09/23 08:42:25;;;;;;;2.05;0.90;;;20.10;99.90;;;;;;5015199;28;20038;-38
2023/09/23 08:44:51;;;;;;;6.63;1.00;;;20.10;99.90;;;;;;5015165;28;20026;-39
2023/09/23 08:47:18;;;;;;;3.45;1.00;;;20.20;99.90;;;;;;5015144;28;20156;-40
2023/09/23 08:49:49;;;;;;;2.03;1.00;;;20.20;99.90;;;;;;5015206;28;20080;-39
2023/09/23 08:52:19;;;;;;;2.15;1.05;;;20.20;99.90;;;;;;5015085;28;20096;-39
2023/09/23 08:54:49;;;;;;;1.75;0.80;;;20.20;99.90;;;;;;5014957;28;20558;-41
2023/09/23 08:57:19;;;;;;;2.88;1.00;;;20.30;99.90;;;;;;5014902;28;20037;-40
2023/09/23 08:59:45;;;;;;;1.85;0.80;;;20.30;99.90;;;;;;5015024;28;20557;-41
2023/09/23 09:02:21;;;;;;;1.63;0.90;;;20.30;99.90;;;;;;5014900;28;20061;-39
2023/09/23 09:04:47;;;;;;;2.38;0.93;;;20.30;99.90;;;;;;5014876;28;20064;-38
2023/09/23 09:07:13;;;;;;;2.35;1.05;;;20.40;99.90;;;;;;5014823;28;20483;-37
2023/09/23 09:09:38;;;;;;;3.28;0.85;;;20.40;99.90;;;;;;5014787;28;20026;-37
2023/09/23 09:12:05;;;;;;;1.80;0.70;;;20.40;99.90;;;;;;5014706;28;20033;-37
2023/09/23 09:14:33;;;;;;;1.83;0.93;;;20.50;99.90;;;;;;5014571;28;20052;-39
2023/09/23 09:16:59;;;;;;;1.35;0.95;;;20.50;99.90;;;;;;5014587;28;20022;-38
2023/09/23 09:19:26;;;;;;;2.70;0.90;;;20.50;99.90;;;;;;5014637;28;20057;-40
2023/09/23 09:21:51;;;;;;;2.83;0.80;;;20.50;99.90;;;;;;5014601;28;20033;-39
2023/09/23 09:24:17;;;;;;;2.53;1.00;;;20.60;99.90;;;;;;5014385;28;20026;-40
2023/09/23 09:26:44;;;;;;;1.45;0.80;;;20.60;99.90;;;;;;5014426;28;20018;-39
2023/09/23 09:29:10;;;;;;;1.90;0.90;;;20.60;99.90;;;;;;5014493;28;20026;-37
2023/09/23 09:31:38;;;;;;;1.67;0.80;;;20.60;99.90;;;;;;5014519;28;20029;-37
2023/09/23 09:34:10;;;;;;;1.75;0.70;;;20.60;99.90;;;;;;5014382;28;20072;-39
2023/09/23 09:36:38;;;;;;;1.35;0.65;;;20.70;99.90;;;;;;5014263;28;20423;-42
2023/09/23 09:39:07;;;;;;;1.15;0.60;;;20.70;99.90;;;;;;5014270;28;20026;-37
2023/09/23 09:41:53;;;;;;;2.15;0.90;;;20.70;99.90;;;;;;5014647;28;20028;-40
2023/09/23 09:44:22;;;;;;;3.08;0.90;;;20.70;99.90;;;;;;4996521;28;20116;-40
2023/09/23 09:46:50;;;;;;;2.13;0.80;;;20.80;99.90;;;;;;5013443;28;20036;-39
2023/09/23 09:49:17;;;;;;;1.48;0.60;;;20.80;99.90;;;;;;5014037;28;20028;-40
2023/09/23 09:51:48;;;;;;;1.73;0.70;;;20.80;99.90;;;;;;5013922;28;20026;-39
2023/09/23 09:54:18;;;;;;;0.90;0.60;;;20.80;99.90;;;;;;5013824;28;20057;-39
2023/09/23 09:56:46;;;;;;;1.42;0.75;;;20.80;99.90;;;;;;5013857;28;20022;-38
2023/09/23 09:59:28;;;;;;;1.10;0.70;;;20.80;99.90;;;;;;5013964;28;20018;-36
2023/09/23 10:01:58;;;;;;;0.90;0.60;;;20.90;99.90;;;;;;5013724;28;20490;-39
2023/09/23 10:04:32;;;;;;;1.48;0.70;;;20.90;99.90;;;;;;5013786;28;20499;-39
2023/09/23 10:06:58;;;;;;;0.90;0.50;;;20.90;99.90;;;;;;5013845;28;20102;-36
2023/09/23 10:09:28;;;;;;;1.60;0.80;;;20.90;99.90;;;;;;5013849;28;20053;-39
2023/09/23 10:11:55;;;;;;;1.33;0.75;;;20.90;99.90;;;;;;5015009;28;20041;-38
2023/09/23 10:14:22;;;;;;;1.52;0.80;;;21.00;99.90;;;;;;5013484;28;20022;-38
2023/09/23 10:17:14;;;;;;;2.65;0.70;;;21.00;99.90;;;;;;5013492;28;20033;-39
2023/09/23 10:19:41;;;;;;;3.20;0.68;;;21.00;99.90;;;;;;5010713;28;20436;-38
2023/09/23 10:22:15;;;;;;;1.60;0.90;;;21.00;99.90;;;;;;5013380;28;20027;-42
2023/09/23 10:24:41;;;;;;;2.40;0.60;;;21.00;99.90;;;;;;5013313;28;20111;-36
2023/09/23 10:27:11;;;;;;;1.33;0.68;;;21.10;99.90;;;;;;5013408;28;20439;-41
2023/09/23 10:29:45;;;;;;;1.77;0.90;;;21.10;99.90;;;;;;5013483;28;20440;-43
2023/09/23 10:32:15;;;;;;;1.63;0.60;;;21.10;99.90;;;;;;5013594;28;20026;-37
2023/09/23 10:34:53;;;;;;;1.35;0.77;;;21.10;99.90;;;;;;5013093;28;20083;-37
2023/09/23 10:37:32;;;;;;;1.13;0.70;;;21.10;99.90;;;;;;5013066;28;20052;-36
2023/09/23 10:40:12;;;;;;;2.40;0.88;;;21.10;99.90;;;;;;5013185;28;20018;-40
2023/09/23 10:42:38;;;;;;;1.58;0.70;;;21.10;99.90;;;;;;5012990;28;20037;-39
2023/09/23 10:45:05;;;;;;;2.28;0.70;;;21.10;99.90;;;;;;5012945;28;20018;-39
2023/09/23 10:47:31;;;;;;;1.00;0.50;;;21.10;99.90;;;;;;5012945;28;20067;-44
2023/09/23 10:49:56;;;;;;;1.25;0.50;;;21.10;99.90;;;;;;5012970;28;20048;-40
2023/09/23 10:52:22;;;;;;;1.23;0.60;;;21.00;99.90;;;;;;5012811;28;20036;-39
2023/09/23 10:54:48;;;;;;;2.05;0.80;;;21.00;99.90;;;;;;5012692;28;20029;-42
2023/09/23 10:57:14;;;;;;;1.95;0.60;;;21.00;99.90;;;;;;5011932;28;20104;-39
2023/09/23 10:59:43;;;;;;;2.30;0.80;;;20.90;99.90;;;;;;5013070;28;20101;-39
2023/09/23 11:02:10;;;;;;;1.25;0.70;;;20.90;99.90;;;;;;5012905;28;20389;-45
2023/09/23 11:04:35;;;;;;;2.67;0.98;;;20.80;99.90;;;;;;5012604;28;20498;-39
2023/09/23 11:07:02;;;;;;;1.40;0.60;;;20.80;99.90;;;;;;5012618;28;20038;-38
2023/09/23 11:09:28;;;;;;;1.08;0.63;;;20.80;99.90;;;;;;5012780;28;20109;-39
2023/09/23 11:11:57;;;;;;;3.42;0.70;;;20.80;99.90;;;;;;5012518;28;20153;-39
2023/09/23 11:14:26;;;;;;;1.52;0.90;;;20.80;99.90;;;;;;5012804;28;20029;-38
2023/09/23 11:16:51;;;;;;;1.80;0.57;;;20.80;99.90;;;;;;5012599;28;20100;-39
2023/09/23 11:19:21;;;;;;;1.17;0.70;;;20.80;99.90;;;;;;5013333;28;20109;-40
2023/09/23 11:21:47;;;;;;;0.70;0.50;;;20.80;99.90;;;;;;5012503;28;20391;-38
2023/09/23 11:24:13;;;;;;;0.95;0.50;;;20.90;99.90;;;;;;5012421;28;20026;-40
2023/09/23 11:26:40;;;;;;;0.85;0.40;;;20.90;99.90;;;;;;5012184;28;20022;-41
2023/09/23 11:29:07;;;;;;;1.00;0.60;;;20.90;99.90;;;;;;5012246;28;20029;-39
2023/09/23 11:31:32;;;;;;;1.27;0.70;;;20.90;99.90;;;;;;5012069;28;20463;-36
2023/09/23 11:33:58;;;;;;;1.00;0.65;;;21.00;99.90;;;;;;5012284;28;20025;-38
2023/09/23 11:36:24;;;;;;;1.08;0.60;;;21.00;99.90;;;;;;5011958;28;20038;-39
2023/09/23 11:38:49;;;;;;;1.65;0.73;;;21.00;99.90;;;;;;5012054;28;20026;-38
2023/09/23 11:41:16;;;;;;;2.55;0.60;;;21.00;99.90;;;;;;5009920;28;20092;-39
2023/09/23 11:43:41;;;;;;;3.55;0.73;;;20.80;98.70;;;;;;5011589;28;20033;-38
2023/09/23 11:46:07;;;;;;;2.58;0.60;;;20.80;99.70;;;;;;5011023;28;20026;-39
2023/09/23 11:48:35;;;;;;;2.53;0.85;;;20.80;99.80;;;;;;5011227;28;20313;-38
2023/09/23 11:51:01;;;;;;;0.73;0.50;;;20.80;99.90;;;;;;5011955;28;20029;-38
2023/09/23 11:53:27;;;;;;;4.68;0.82;;;20.80;99.90;;;;;;5012242;28;20383;-40
2023/09/23 11:55:52;;;;;;;2.05;0.73;;;20.90;99.90;;;;;;5011614;28;20025;-40
2023/09/23 11:58:19;;;;;;;1.05;0.70;;;20.90;99.90;;;;;;5011856;28;20034;-41
2023/09/23 12:00:47;;;;;;;2.28;0.70;;;20.90;99.90;;;;;;5011798;28;20542;-39
2023/09/23 12:03:14;;;;;;;2.15;0.60;;;20.90;99.90;;;;;;5011779;28;20061;-39
2023/09/23 12:05:41;;;;;;;1.15;0.60;;;20.90;99.90;;;;;;5011571;28;20056;-39
2023/09/23 12:08:09;;;;;;;3.17;0.60;;;20.90;99.90;;;;;;5011503;28;20091;-40
2023/09/23 12:10:36;;;;;;;2.85;0.70;;;20.90;99.90;;;;;;5011735;28;20037;-39
2023/09/23 12:13:02;;;;;;;2.10;0.70;;;20.90;99.90;;;;;;5011502;28;20312;-39
2023/09/23 12:15:29;;;;;;;1.77;0.70;;;20.90;99.90;;;;;;5011386;28;20033;-41
2023/09/23 12:17:54;;;;;;;2.00;0.65;;;20.90;99.90;;;;;;5011586;28;20116;-40
2023/09/23 12:20:22;;;;;;;0.93;0.60;;;21.00;99.90;;;;;;5011593;28;20073;-39
2023/09/23 12:22:48;;;;;;;1.45;0.77;;;20.90;99.90;;;;;;5011476;28;20545;-39
2023/09/23 12:25:14;;;;;;;2.28;0.50;;;20.90;99.90;;;;;;5011473;28;20058;-39
2023/09/23 12:27:41;;;;;;;1.27;0.70;;;20.90;99.90;;;;;;5011328;28;20034;-41
2023/09/23 12:30:07;;;;;;;1.52;0.60;;;20.90;99.90;;;;;;5011496;28;20041;-41
2023/09/23 12:32:33;;;;;;;2.20;0.70;;;20.90;99.90;;;;;;5011508;28;20022;-40
2023/09/23 12:34:59;;;;;;;1.33;0.50;;;20.90;99.90;;;;;;5011287;28;20026;-40
2023/09/23 12:37:27;;;;;;;3.38;0.70;;;20.90;99.90;;;;;;5011517;28;20398;-40
2023/09/23 12:39:56;;;;;;;2.17;0.80;;;20.90;99.90;;;;;;5011400;28;20053;-42
2023/09/23 12:42:22;;;;;;;0.98;0.63;;;20.90;99.90;;;;;;5010999;28;20057;-39
2023/09/23 12:44:48;;;;;;;2.13;0.80;;;20.90;99.90;;;;;;5011228;28;20041;-39
2023/09/23 12:47:13;;;;;;;1.95;0.60;;;21.00;99.90;;;;;;5011673;28;20030;-40